Time;durP1;ratioP1;P1;durP2;ratioP2;P2;SDS_P1;SDS_P2;PMS_P1;PMS_P2;Temp;Humidity;BMP_temperature;BMP_pressure;BME280_temperature;BME280_humidity;BME280_pressure;Samples;Min_cycle;Max_cycle;Signal;HPM_P1;HPM_P2
2023/10/07 00:01:54;;;;;;;;;;;;;;;-144.99;100.00;52384.91;5061160;28;19996;-73
2023/10/07 00:04:21;;;;;;;;;;;;;;;-144.99;100.00;52407.31;5056771;28;19990;-74
2023/10/07 00:06:47;;;;;;;;;;;;;;;-144.99;100.00;52395.09;5053370;28;20380;-69
2023/10/07 00:09:16;;;;;;;;;;;;;;;-144.99;100.00;52444.03;5058144;28;19950;-71
2023/10/07 00:11:46;;;;;;;;;;;;;;;-144.99;100.00;52409.38;5055196;28;20271;-74
2023/10/07 00:14:14;;;;;;;;;;;;;;;-144.99;100.00;52386.94;5053959;28;20352;-72
2023/10/07 00:16:43;;;;;;;;;;;;;;;-144.99;100.00;52407.31;5055356;28;19962;-67
2023/10/07 00:19:09;;;;;;;;;;;;;;;-144.99;100.00;52378.78;5055718;28;20023;-67
2023/10/07 00:21:53;;;;;;;;;;;;;;;-144.99;100.00;52419.56;5059658;28;20013;-66
2023/10/07 00:24:19;;;;;;;;;;;;;;;-144.99;100.00;52366.56;5062911;28;19982;-66
2023/10/07 00:26:48;;;;;;;;;;;;;;;-144.99;100.00;52403.25;5061147;28;19991;-66
2023/10/07 00:29:16;;;;;;;;;;;;;;;-144.99;100.00;52407.31;5061374;28;19979;-67
2023/10/07 00:31:42;;;;;;;;;;;;;;;-144.99;100.00;52386.94;5054467;28;19939;-69
2023/10/07 00:34:14;;;;;;;;;;;;;;;-144.99;100.00;52419.56;5054830;28;19966;-67
2023/10/07 00:36:44;;;;;;;;;;;;;;;-144.99;100.00;52397.13;5060930;28;20075;-69
2023/10/07 00:39:19;;;;;;;;;;;;;;;-144.99;100.00;52454.22;5052872;28;20428;-70
2023/10/07 00:41:50;;;;;;;;;;;;;;;-144.99;100.00;52374.72;5054358;28;20285;-68
2023/10/07 00:44:22;;;;;;;;;;;;;;;-144.99;100.00;52386.94;5054103;28;19941;-68
2023/10/07 00:46:55;;;;;;;;;;;;;;;-144.99;100.00;52423.63;5055757;28;19994;-69
2023/10/07 00:49:27;;;;;;;;;;;;;;;-144.99;100.00;52368.59;5056847;28;20054;-67
2023/10/07 00:51:55;;;;;;;;;;;;;;;-144.99;100.00;52407.31;5054224;28;19950;-67
2023/10/07 00:54:37;;;;;;;;;;;;;;;-144.99;100.00;52431.78;5055670;28;19949;-68
2023/10/07 00:57:07;;;;;;;;;;;;;;;-144.99;100.00;52427.72;5052881;28;19953;-68
2023/10/07 00:59:35;;;;;;;;;;;;;;;-144.99;100.00;52427.72;5054574;28;19977;-66
2023/10/07 01:02:06;;;;;;;;;;;;;;;-144.99;100.00;52407.31;5053025;28;19935;-66
2023/10/07 01:04:40;;;;;;;;;;;;;;;-144.99;100.00;52413.44;5053755;28;19947;-66
2023/10/07 01:07:06;;;;;;;;;;;;;;;-144.99;100.00;52450.13;5052537;28;19945;-66
2023/10/07 01:09:33;;;;;;;;;;;;;;;-144.99;100.00;52370.63;5052445;28;20009;-66
2023/10/07 01:12:00;;;;;;;;;;;;;;;-144.99;100.00;52403.25;5059898;28;20310;-66
2023/10/07 01:14:28;;;;;;;;;;;;;;;-144.99;100.00;52378.78;5058760;28;20449;-66
2023/10/07 01:16:55;;;;;;;;;;;;;;;-144.99;100.00;52391.03;5054032;28;19970;-64
2023/10/07 01:19:29;;;;;;;;;;;;;;;-144.99;100.00;52419.56;5052239;28;20346;-65
2023/10/07 01:21:59;;;;;;;;;;;;;;;-144.99;100.00;52439.94;5053194;28;19939;-62
2023/10/07 01:24:46;;;;;;;;;;;;;;;-144.99;100.00;52413.44;5051551;28;19956;-65
2023/10/07 01:27:35;;;;;;;;;;;;;;;-144.99;100.00;52395.09;5053019;28;20076;-66
2023/10/07 01:30:07;;;;;;;;;;;;;;;-144.99;100.00;52427.72;5052539;28;20330;-64
2023/10/07 01:32:33;;;;;;;;;;;;;;;-144.99;100.00;52425.66;5052237;28;19939;-66
2023/10/07 01:35:05;;;;;;;;;;;;;;;-144.99;100.00;52409.38;5050159;28;20601;-66
2023/10/07 01:37:41;;;;;;;;;;;;;;;-144.99;100.00;52452.16;5054628;28;20041;-65
2023/10/07 01:40:12;;;;;;;;;;;;;;;-144.99;100.00;52391.03;5060241;28;19962;-67
2023/10/07 01:42:39;;;;;;;;;;;;;;;-144.99;100.00;52391.03;5054489;28;20397;-65
2023/10/07 01:45:19;;;;;;;;;;;;;;;-144.99;100.00;52378.78;5058591;28;20015;-66
2023/10/07 01:47:47;;;;;;;;;;;;;;;-144.99;100.00;52452.16;5060594;28;19948;-69
2023/10/07 01:50:14;;;;;;;;;;;;;;;-144.99;100.00;52419.56;5055460;28;19962;-67
2023/10/07 01:52:45;;;;;;;;;;;;;;;-144.99;100.00;52427.72;5053323;28;19952;-65
2023/10/07 01:55:13;;;;;;;;;;;;;;;-144.99;100.00;52435.88;5055729;28;19942;-67
2023/10/07 01:57:41;;;;;;;;;;;;;;;-144.99;100.00;52399.19;5058165;28;20048;-67
2023/10/07 02:00:11;;;;;;;;;;;;;;;-144.99;100.00;52431.78;5059083;28;19925;-67
2023/10/07 02:02:48;;;;;;;;;;;;;;;-144.99;100.00;52407.31;5055670;28;19939;-66
2023/10/07 02:05:15;;;;;;;;;;;;;;;-144.99;100.00;52407.31;5051474;28;19936;-65
2023/10/07 02:07:46;;;;;;;;;;;;;;;-144.99;100.00;52427.72;5054392;28;20441;-66
2023/10/07 02:10:23;;;;;;;;;;;;;;;-144.99;100.00;52417.53;5050661;28;19956;-66
2023/10/07 02:12:53;;;;;;;;;;;;;;;-144.99;100.00;52439.94;5054921;28;20000;-68
2023/10/07 02:15:20;;;;;;;;;;;;;;;-144.99;100.00;52431.78;5050227;28;19937;-68
2023/10/07 02:17:47;;;;;;;;;;;;;;;-144.99;100.00;52417.53;5049438;28;20052;-70
2023/10/07 02:20:38;;;;;;;;;;;;;;;-144.99;100.00;52427.72;5050072;28;19951;-71
2023/10/07 02:23:11;;;;;;;;;;;;;;;-144.99;100.00;52433.81;5050428;28;21752;-70
2023/10/07 02:25:40;;;;;;;;;;;;;;;-144.99;100.00;52419.56;5052133;28;20189;-68
2023/10/07 02:28:07;;;;;;;;;;;;;;;-144.99;100.00;52409.38;5052547;28;20192;-70
2023/10/07 02:30:38;;;;;;;;;;;;;;;-144.99;100.00;52411.41;5050533;28;20318;-69
2023/10/07 02:33:08;;;;;;;;;;;;;;;-144.99;100.00;52427.72;5047970;28;21563;-72
2023/10/07 02:35:36;;;;;;;;;;;;;;;-144.99;100.00;52399.19;5049390;28;20325;-69
2023/10/07 02:38:04;;;;;;;;;;;;;;;-144.99;100.00;52452.16;5051277;28;19947;-70
2023/10/07 02:40:36;;;;;;;;;;;;;;;-144.99;100.00;52415.47;5051597;28;20484;-70
2023/10/07 02:43:07;;;;;;;;;;;;;;;-144.99;100.00;52427.72;5052871;28;19949;-68
2023/10/07 02:45:39;;;;;;;;;;;;;;;-144.99;100.00;52468.47;5052759;28;20377;-69
2023/10/07 02:48:10;;;;;;;;;;;;;;;-144.99;100.00;52427.72;5050487;28;19995;-70
2023/10/07 02:50:39;;;;;;;;;;;;;;;-144.99;100.00;52439.94;5052973;28;19966;-69
2023/10/07 02:53:12;;;;;;;;;;;;;;;-144.99;100.00;52435.88;5051252;28;19940;-67
2023/10/07 02:55:47;;;;;;;;;;;;;;;-144.99;100.00;52419.56;5051732;28;20429;-65
2023/10/07 02:58:26;;;;;;;;;;;;;;;-144.99;100.00;52448.09;5050810;28;20449;-66
2023/10/07 03:00:58;;;;;;;;;;;;;;;-144.99;100.00;52439.94;5052383;28;20021;-66
2023/10/07 03:03:38;;;;;;;;;;;;;;;-144.99;100.00;52433.81;5050687;28;20425;-66
2023/10/07 03:06:06;;;;;;;;;;;;;;;-144.99;100.00;52460.31;5054221;28;20635;-68
2023/10/07 03:08:46;;;;;;;;;;;;;;;-144.99;100.00;52488.84;5054588;28;20010;-69
2023/10/07 03:11:20;;;;;;;;;;;;;;;-144.99;100.00;52407.31;5051303;22;19970;-66
2023/10/07 03:13:49;;;;;;;;;;;;;;;-144.99;100.00;52419.56;5014628;28;19937;-65
2023/10/07 03:16:28;;;;;;;;;;;;;;;-144.99;100.00;52403.25;5013028;28;19941;-64
2023/10/07 03:19:06;;;;;;;;;;;;;;;-144.99;100.00;52399.19;5012567;28;20083;-65
2023/10/07 03:21:54;;;;;;;;;;;;;;;-144.99;100.00;52411.41;4991578;28;20284;-61
2023/10/07 03:24:29;;;;;;;;;;;;;;;-144.99;100.00;52427.72;4994800;28;19949;-62
2023/10/07 03:27:05;;;;;;;;;;;;;;;-144.99;100.00;52417.53;4993150;28;19930;-61
2023/10/07 03:29:36;;;;;;;;;;;;;;;-144.99;100.00;52435.88;4990296;28;20031;-61
2023/10/07 03:32:07;;;;;;;;;;;;;;;-144.99;100.00;52391.03;4994660;28;19941;-61
2023/10/07 03:34:35;;;;;;;;;;;;;;;-144.99;100.00;52435.88;4993334;28;19944;-61
2023/10/07 03:37:14;;;;;;;;;;;;;;;-144.99;100.00;52423.63;4998021;28;20018;-61
2023/10/07 03:39:44;;;;;;;;;;;;;;;-144.99;100.00;52407.31;4993142;28;19959;-60
2023/10/07 03:42:14;;;;;;;;;;;;;;;-144.99;100.00;52460.31;5013571;28;19980;-60
2023/10/07 03:44:42;;;;;;;;;;;;;;;-144.99;100.00;52448.09;5011119;28;19940;-59
2023/10/07 03:47:10;;;;;;;;;;;;;;;-144.99;100.00;52415.47;5020288;28;19945;-59
2023/10/07 03:49:40;;;;;;;;;;;;;;;-144.99;100.00;52439.94;5016841;28;19958;-59
2023/10/07 03:52:12;;;;;;;;;;;;;;;-144.99;100.00;52423.63;5015500;28;19972;-59
2023/10/07 03:54:40;;;;;;;;;;;;;;;-144.99;100.00;52419.56;5019032;28;19961;-70
2023/10/07 03:57:07;;;;;;;;;;;;;;;-144.99;100.00;52433.81;5010486;28;19953;-68
2023/10/07 03:59:34;;;;;;;;;;;;;;;-144.99;100.00;52433.81;5005769;28;20361;-68
2023/10/07 04:02:12;;;;;;;;;;;;;;;-144.99;100.00;52452.16;5004540;28;19969;-67
2023/10/07 04:04:41;;;;;;;;;;;;;;;-144.99;100.00;52411.41;4997003;28;19980;-67
2023/10/07 04:07:08;;;;;;;;;;;;;;;-144.99;100.00;52439.94;4995140;28;19940;-67
2023/10/07 04:09:35;;;;;;;;;;;;;;;-144.99;100.00;52448.09;4996103;28;20001;-67
2023/10/07 04:12:03;;;;;;;;;;;;;;;-144.99;100.00;52427.72;4996270;28;20465;-67
2023/10/07 04:14:30;;;;;;;;;;;;;;;-144.99;100.00;52425.66;5014116;28;19947;-66
2023/10/07 04:17:00;;;;;;;;;;;;;;;-144.99;100.00;52472.56;5022253;28;20022;-71
2023/10/07 04:19:38;;;;;;;;;;;;;;;-144.99;100.00;52513.31;5016239;28;20005;-68
2023/10/07 04:22:07;;;;;;;;;;;;;;;-144.99;100.00;52431.78;5013127;28;19948;-65
2023/10/07 04:24:35;;;;;;;;;;;;;;;-144.99;100.00;52439.94;5009618;28;19947;-65
2023/10/07 04:27:03;;;;;;;;;;;;;;;-144.99;100.00;52454.22;5013506;28;20384;-66
2023/10/07 04:29:30;;;;;;;;;;;;;;;-144.99;100.00;52452.16;5022780;28;19933;-65
2023/10/07 04:31:58;;;;;;;;;;;;;;;-144.99;100.00;52448.09;5014126;28;19964;-67
2023/10/07 04:34:26;;;;;;;;;;;;;;;-144.99;100.00;52456.25;5014547;28;19937;-68
2023/10/07 04:37:11;;;;;;;;;;;;;;;-144.99;100.00;52423.63;5015991;28;20483;-68
2023/10/07 04:39:38;;;;;;;;;;;;;;;-144.99;100.00;52444.03;5011180;28;19962;-68
2023/10/07 04:42:05;;;;;;;;;;;;;;;-144.99;100.00;52456.25;5004444;28;19948;-65
2023/10/07 04:47:29;;;;;;;;;;;;;;;-144.99;100.00;52456.25;5018828;28;19947;-62
2023/10/07 04:50:00;;;;;;;;;;;;;;;-144.99;100.00;52476.63;5013729;28;20322;-66
2023/10/07 04:52:28;;;;;;;;;;;;;;;-144.99;100.00;52450.13;5016919;28;20018;-64
2023/10/07 04:54:55;;;;;;;;;;;;;;;-144.99;100.00;52452.16;5013256;28;20039;-65
2023/10/07 04:57:43;;;;;;;;;;;;;;;-144.99;100.00;52501.09;5006555;28;19945;-64
2023/10/07 05:00:08;;;;;;;;;;;;;;;-144.99;100.00;52444.03;5016379;28;19956;-65
2023/10/07 05:02:35;;;;;;;;;;;;;;;-144.99;100.00;52460.31;5016975;28;20036;-64
2023/10/07 05:05:00;;;;;;;;;;;;;;;-144.99;100.00;52456.25;5014763;28;19948;-63
2023/10/07 05:07:28;;;;;;;;;;;;;;;-144.99;100.00;52472.56;5012044;28;19961;-63
2023/10/07 05:09:56;;;;;;;;;;;;;;;-144.99;100.00;52497.00;5006168;28;20406;-62
2023/10/07 05:12:22;;;;;;;;;;;;;;;-144.99;100.00;52464.41;5009000;28;19954;-66
2023/10/07 05:14:48;;;;;;;;;;;;;;;-144.99;100.00;52439.94;5010562;28;20359;-65
2023/10/07 05:17:14;;;;;;;;;;;;;;;-144.99;100.00;52476.63;5009909;28;20414;-64
2023/10/07 05:19:41;;;;;;;;;;;;;;;-144.99;100.00;52462.34;5003477;28;19957;-64
2023/10/07 05:22:14;;;;;;;;;;;;;;;-144.99;100.00;52433.81;5011923;28;20097;-64
2023/10/07 05:24:46;;;;;;;;;;;;;;;-144.99;100.00;52407.31;5018410;28;19943;-60
2023/10/07 05:27:13;;;;;;;;;;;;;;;-144.99;100.00;52452.16;5004366;28;19937;-60
2023/10/07 05:29:40;;;;;;;;;;;;;;;-144.99;100.00;52460.31;5015152;28;20344;-60
2023/10/07 05:32:07;;;;;;;;;;;;;;;-144.99;100.00;52480.72;5009152;28;19940;-62
2023/10/07 05:34:33;;;;;;;;;;;;;;;-144.99;100.00;52501.09;5012191;28;19984;-62
2023/10/07 05:37:01;;;;;;;;;;;;;;;-144.99;100.00;52427.72;5015555;28;20031;-62
2023/10/07 05:39:28;;;;;;;;;;;;;;;-144.99;100.00;52464.41;5013488;28;19957;-63
2023/10/07 05:41:56;;;;;;;;;;;;;;;-144.99;100.00;52435.88;5015271;28;19949;-63
2023/10/07 05:44:22;;;;;;;;;;;;;;;-144.99;100.00;52456.25;5012318;28;19936;-67
2023/10/07 05:46:50;;;;;;;;;;;;;;;-144.99;100.00;52452.16;5018691;28;19971;-65
2023/10/07 05:49:18;;;;;;;;;;;;;;;-144.99;100.00;52452.16;5014423;28;20515;-63
2023/10/07 05:51:46;;;;;;;;;;;;;;;-144.99;100.00;52456.25;5012368;28;19969;-64
2023/10/07 05:54:18;;;;;;;;;;;;;;;-144.99;100.00;52444.03;5016793;28;19949;-65
2023/10/07 05:56:47;;;;;;;;;;;;;;;-144.99;100.00;52444.03;5009114;28;20523;-64
2023/10/07 05:59:15;;;;;;;;;;;;;;;-144.99;100.00;52488.84;5014930;28;20709;-63
2023/10/07 06:01:42;;;;;;;;;;;;;;;-144.99;100.00;52458.28;4997012;28;20067;-67
2023/10/07 06:04:09;;;;;;;;;;;;;;;-144.99;100.00;52460.31;4993959;28;19944;-70
2023/10/07 06:06:36;;;;;;;;;;;;;;;-144.99;100.00;52460.31;4996810;28;20522;-69
2023/10/07 06:09:03;;;;;;;;;;;;;;;-144.99;100.00;52448.09;4999440;28;19949;-68
2023/10/07 06:11:31;;;;;;;;;;;;;;;-144.99;100.00;52472.56;4998030;28;19944;-69
2023/10/07 06:13:59;;;;;;;;;;;;;;;-144.99;100.00;52464.41;4996790;28;19943;-70
2023/10/07 06:16:29;;;;;;;;;;;;;;;-144.99;100.00;52439.94;4997520;28;19968;-68
2023/10/07 06:18:56;;;;;;;;;;;;;;;-144.99;100.00;52468.47;4993887;28;19971;-71
2023/10/07 06:21:27;;;;;;;;;;;;;;;-144.99;100.00;52462.34;4995772;28;19955;-64
2023/10/07 06:23:54;;;;;;;;;;;;;;;-144.99;100.00;52501.09;4992793;28;19943;-65
2023/10/07 06:26:20;;;;;;;;;;;;;;;-144.99;100.00;52464.41;4994240;28;20047;-64
2023/10/07 06:28:48;;;;;;;;;;;;;;;-144.99;100.00;52411.41;4993978;28;20414;-64
2023/10/07 06:31:22;;;;;;;;;;;;;;;-144.99;100.00;52464.41;4996417;28;19962;-67
2023/10/07 06:33:59;;;;;;;;;;;;;;;-144.99;100.00;52435.88;4997881;28;20864;-65
2023/10/07 06:36:26;;;;;;;;;;;;;;;-144.99;100.00;52435.88;4996912;28;19957;-65
2023/10/07 06:38:53;;;;;;;;;;;;;;;-144.99;100.00;52439.94;4995578;28;20057;-64
2023/10/07 06:41:20;;;;;;;;;;;;;;;-144.99;100.00;52488.84;5011153;28;20560;-63
2023/10/07 06:43:50;;;;;;;;;;;;;;;-144.99;100.00;52452.16;4997114;28;20039;-61
2023/10/07 06:46:20;;;;;;;;;;;;;;;-144.99;100.00;52468.47;4991318;28;19973;-61
2023/10/07 06:48:48;;;;;;;;;;;;;;;-144.99;100.00;52472.56;4991725;28;20386;-64
2023/10/07 06:51:16;;;;;;;;;;;;;;;-144.99;100.00;52433.81;4997126;28;20167;-64
2023/10/07 06:53:43;;;;;;;;;;;;;;;-144.99;100.00;52472.56;5015296;28;19991;-64
2023/10/07 06:56:12;;;;;;;;;;;;;;;-144.99;100.00;52431.78;5010643;28;19992;-65
2023/10/07 06:58:39;;;;;;;;;;;;;;;-144.99;100.00;52448.09;5005011;28;20173;-68
2023/10/07 07:01:16;;;;;;;;;;;;;;;-144.99;100.00;52464.41;5002899;28;20550;-66
2023/10/07 07:03:43;;;;;;;;;;;;;;;-144.99;100.00;52478.66;4993725;28;20061;-65
2023/10/07 07:06:16;;;;;;;;;;;;;;;-144.99;100.00;52441.97;4993123;28;19947;-66
2023/10/07 07:08:44;;;;;;;;;;;;;;;-144.99;100.00;52452.16;4994922;28;19955;-66
2023/10/07 07:11:11;;;;;;;;;;;;;;;-144.99;100.00;52431.78;4992525;28;19976;-66
2023/10/07 07:13:40;;;;;;;;;;;;;;;-144.99;100.00;52439.94;4994250;28;20430;-69
2023/10/07 07:16:07;;;;;;;;;;;;;;;-144.99;100.00;52429.75;4993924;28;20061;-65
2023/10/07 07:18:39;;;;;;;;;;;;;;;-144.99;100.00;52452.16;4996568;28;19962;-65
2023/10/07 07:21:14;;;;;;;;;;;;;;;-144.99;100.00;52444.03;4999360;28;19952;-66
2023/10/07 07:23:45;;;;;;;;;;;;;;;-144.99;100.00;52431.78;4999248;28;20023;-66
2023/10/07 07:26:12;;;;;;;;;;;;;;;-144.99;100.00;52456.25;4997632;28;19943;-67
2023/10/07 07:28:42;;;;;;;;;;;;;;;-144.99;100.00;52460.31;4999717;28;19943;-66
2023/10/07 07:31:11;;;;;;;;;;;;;;;-144.99;100.00;52452.16;4997488;28;19958;-63
2023/10/07 07:33:38;;;;;;;;;;;;;;;-144.99;100.00;52456.25;4993935;28;20397;-63
2023/10/07 07:36:18;;;;;;;;;;;;;;;-144.99;100.00;52480.72;4996934;28;19962;-62
2023/10/07 07:38:44;;;;;;;;;;;;;;;-144.99;100.00;52435.88;4995526;28;19960;-62
2023/10/07 07:41:26;;;;;;;;;;;;;;;-144.99;100.00;52484.78;5013974;28;20458;-63
2023/10/07 07:43:58;;;;;;;;;;;;;;;-144.99;100.00;52486.81;5007341;28;20054;-64
2023/10/07 07:46:29;;;;;;;;;;;;;;;-144.99;100.00;52476.63;5005115;28;19944;-63
2023/10/07 07:48:56;;;;;;;;;;;;;;;-144.99;100.00;52444.03;5007286;28;20375;-64
2023/10/07 07:51:24;;;;;;;;;;;;;;;-144.99;100.00;52456.25;5003361;28;20499;-64
2023/10/07 07:53:51;;;;;;;;;;;;;;;-144.99;100.00;52423.63;5000480;28;19998;-66
2023/10/07 07:56:18;;;;;;;;;;;;;;;-144.99;100.00;52448.09;4997507;28;19929;-66
2023/10/07 07:58:47;;;;;;;;;;;;;;;-144.99;100.00;52472.56;4994764;28;20263;-66
2023/10/07 08:01:18;;;;;;;;;;;;;;;-144.99;100.00;52464.41;4981165;28;19994;-68
2023/10/07 08:03:44;;;;;;;;;;;;;;;-144.99;100.00;52456.25;4998701;28;19945;-70
2023/10/07 08:06:19;;;;;;;;;;;;;;;-144.99;100.00;52413.44;5005253;28;21629;-69
2023/10/07 08:08:45;;;;;;;;;;;;;;;-144.99;100.00;52468.47;5002993;28;19944;-68
2023/10/07 08:11:13;;;;;;;;;;;;;;;-144.99;100.00;52431.78;5003445;28;19965;-71
2023/10/07 08:13:40;;;;;;;;;;;;;;;-144.99;100.00;52456.25;4998544;28;20036;-71
2023/10/07 08:16:07;;;;;;;;;;;;;;;-144.99;100.00;52456.25;5002692;28;19952;-71
2023/10/07 08:18:34;;;;;;;;;;;;;;;-144.99;100.00;52444.03;5007404;28;19961;-68
2023/10/07 08:21:09;;;;;;;;;;;;;;;-144.99;100.00;52427.72;5006459;28;19997;-68
2023/10/07 08:23:37;;;;;;;;;;;;;;;-144.99;100.00;52439.94;5004341;28;19961;-67
2023/10/07 08:26:10;;;;;;;;;;;;;;;-144.99;100.00;52452.16;4997817;28;20049;-70
2023/10/07 08:28:42;;;;;;;;;;;;;;;-144.99;100.00;52464.41;5003094;28;19950;-69
2023/10/07 08:31:19;;;;;;;;;;;;;;;-144.99;100.00;52431.78;5005089;28;21262;-70
2023/10/07 08:33:53;;;;;;;;;;;;;;;-144.99;100.00;52456.25;5006025;28;19975;-69
2023/10/07 08:36:27;;;;;;;;;;;;;;;-144.99;100.00;52439.94;5010166;28;20379;-68
2023/10/07 08:38:53;;;;;;;;;;;;;;;-144.99;100.00;52468.47;5013620;28;20423;-67
2023/10/07 08:41:26;;;;;;;;;;;;;;;-144.99;100.00;52468.47;5021214;28;20019;-69
2023/10/07 08:44:03;;;;;;;;;;;;;;;-144.99;100.00;52446.06;5015419;28;20538;-70
2023/10/07 08:46:33;;;;;;;;;;;;;;;-144.99;100.00;52446.06;5010871;28;20303;-68
2023/10/07 08:49:04;;;;;;;;;;;;;;;-144.99;100.00;52439.94;5017344;28;19942;-67
2023/10/07 08:51:39;;;;;;;;;;;;;;;-144.99;100.00;52444.03;5013352;28;19942;-72
2023/10/07 08:54:17;;;;;;;;;;;;;;;-144.99;100.00;52435.88;5017241;28;20404;-67
2023/10/07 08:56:50;;;;;;;;;;;;;;;-144.99;100.00;52456.25;5015435;28;19942;-67
2023/10/07 08:59:17;;;;;;;;;;;;;;;-144.99;100.00;52427.72;5002921;28;19959;-68
2023/10/07 09:01:44;;;;;;;;;;;;;;;-144.99;100.00;52431.78;5019617;28;19945;-68
2023/10/07 09:04:12;;;;;;;;;;;;;;;-144.99;100.00;52407.31;5010873;28;20016;-70
2023/10/07 09:06:50;;;;;;;;;;;;;;;-144.99;100.00;52452.16;5004673;28;20417;-68
2023/10/07 09:09:32;;;;;;;;;;;;;;;-144.99;100.00;52488.84;4664658;28;10000213;-69
2023/10/07 09:12:01;;;;;;;;;;;;;;;-144.99;100.00;52452.16;5004425;28;20334;-71
2023/10/07 09:17:02;;;;;;;;;;;;;;;-144.99;100.00;52415.47;5034914;28;20035;-71
2023/10/07 09:19:34;;;;;;;;;;;;;;;-144.99;100.00;52464.41;5049671;28;19950;-71
2023/10/07 09:22:10;;;;;;;;;;;;;;;-144.99;100.00;52439.94;5051675;28;19928;-70
2023/10/07 09:24:41;;;;;;;;;;;;;;;-144.99;100.00;52472.56;5052921;28;19955;-71
2023/10/07 09:27:12;;;;;;;;;;;;;;;-144.99;100.00;52484.78;5051685;28;19940;-70
2023/10/07 09:29:41;;;;;;;;;;;;;;;-144.99;100.00;52435.88;5048489;28;19951;-71
2023/10/07 09:32:16;;;;;;;;;;;;;;;-144.99;100.00;52452.16;5049636;28;20161;-71
2023/10/07 09:34:44;;;;;;;;;;;;;;;-144.99;100.00;52446.06;5044747;28;19950;-71
2023/10/07 09:37:13;;;;;;;;;;;;;;;-144.99;100.00;52476.63;5044726;28;19933;-71
2023/10/07 09:39:44;;;;;;;;;;;;;;;-144.99;100.00;52470.50;5036019;28;19994;-71
2023/10/07 09:42:26;;;;;;;;;;;;;;;-144.99;100.00;52448.09;5036770;28;19954;-71
2023/10/07 09:44:55;;;;;;;;;;;;;;;-144.99;100.00;52439.94;5031464;28;19939;-71
2023/10/07 09:47:22;;;;;;;;;;;;;;;-144.99;100.00;52435.88;5034223;28;19948;-71
2023/10/07 09:49:50;;;;;;;;;;;;;;;-144.99;100.00;52429.75;5046624;28;19959;-72
2023/10/07 09:52:18;;;;;;;;;;;;;;;-144.99;100.00;52431.78;5039672;28;20020;-70
2023/10/07 09:54:55;;;;;;;;;;;;;;;-144.99;100.00;52460.31;5050605;28;20006;-71
2023/10/07 09:57:29;;;;;;;;;;;;;;;-144.99;100.00;52464.41;5036119;28;20205;-72
2023/10/07 10:00:38;;;;;;;;;;;;;;;-144.99;100.00;52403.25;5044817;28;19977;-71
2023/10/07 10:03:04;;;;;;;;;;;;;;;-144.99;100.00;52435.88;5051845;28;20008;-72
2023/10/07 10:05:44;;;;;;;;;;;;;;;-144.99;100.00;52460.31;5046837;28;20188;-71
2023/10/07 10:08:28;;;;;;;;;;;;;;;-144.99;100.00;52419.56;5033094;28;19958;-71
2023/10/07 10:10:58;;;;;;;;;;;;;;;-144.99;100.00;52435.88;5025412;28;19971;-71
2023/10/07 10:13:51;;;;;;;;;;;;;;;-144.99;100.00;52456.25;5026097;28;20471;-72
2023/10/07 10:16:19;;;;;;;;;;;;;;;-144.99;100.00;52435.88;5026972;28;19952;-71
2023/10/07 10:18:51;;;;;;;;;;;;;;;-144.99;100.00;52460.31;5025182;28;20426;-70
2023/10/07 10:21:22;;;;;;;;;;;;;;;-144.99;100.00;52427.72;5022419;28;20304;-71
2023/10/07 10:23:51;;;;;;;;;;;;;;;-144.99;100.00;52415.47;5028393;28;19952;-71
2023/10/07 10:26:24;;;;;;;;;;;;;;;-144.99;100.00;52399.19;5017084;28;20358;-71
2023/10/07 10:28:55;;;;;;;;;;;;;;;-144.99;100.00;52403.25;5027833;28;20394;-71
2023/10/07 10:31:32;;;;;;;;;;;;;;;-144.99;100.00;52466.44;5025553;28;20046;-71
2023/10/07 10:33:59;;;;;;;;;;;;;;;-144.99;100.00;52439.94;5033813;28;20006;-71
2023/10/07 10:36:27;;;;;;;;;;;;;;;-144.99;100.00;52476.63;5025878;28;19941;-70
2023/10/07 10:38:53;;;;;;;;;;;;;;;-144.99;100.00;52444.03;5024906;28;20411;-71
2023/10/07 10:41:29;;;;;;;;;;;;;;;-144.99;100.00;52435.88;5024936;28;19957;-71
2023/10/07 10:44:06;;;;;;;;;;;;;;;-144.99;100.00;52415.47;5025998;28;20515;-71
2023/10/07 10:46:44;;;;;;;;;;;;;;;-144.99;100.00;52464.41;5031024;28;19935;-72
2023/10/07 10:49:11;;;;;;;;;;;;;;;-144.99;100.00;52448.09;5031392;28;20356;-71
2023/10/07 10:51:45;;;;;;;;;;;;;;;-144.99;100.00;52423.63;5030475;28;19954;-71
2023/10/07 10:54:13;;;;;;;;;;;;;;;-144.99;100.00;52413.44;5029227;28;20236;-72
2023/10/07 10:56:45;;;;;;;;;;;;;;;-144.99;100.00;52427.72;5021742;28;19941;-71
2023/10/07 10:59:14;;;;;;;;;;;;;;;-144.99;100.00;52435.88;5024469;28;19933;-71
2023/10/07 11:01:43;;;;;;;;;;;;;;;-144.99;100.00;52435.88;5028680;28;19935;-72
2023/10/07 11:04:12;;;;;;;;;;;;;;;-144.99;100.00;52415.47;5035874;28;19966;-72
2023/10/07 11:06:39;;;;;;;;;;;;;;;-144.99;100.00;52460.31;5032727;28;20408;-72
2023/10/07 11:09:09;;;;;;;;;;;;;;;-144.99;100.00;52464.41;5030007;28;20362;-71
2023/10/07 11:11:35;;;;;;;;;;;;;;;-144.99;100.00;52403.25;5029367;28;20005;-72
2023/10/07 11:14:06;;;;;;;;;;;;;;;-144.99;100.00;52456.25;5035912;28;19978;-71
2023/10/07 11:16:43;;;;;;;;;;;;;;;-144.99;100.00;52444.03;5032380;28;19988;-71
2023/10/07 11:19:11;;;;;;;;;;;;;;;-144.99;100.00;52456.25;5034197;28;20355;-72
2023/10/07 11:21:41;;;;;;;;;;;;;;;-144.99;100.00;52460.31;5033095;28;19944;-72
2023/10/07 11:24:14;;;;;;;;;;;;;;;-144.99;100.00;52468.47;5028848;28;20429;-72
2023/10/07 11:26:42;;;;;;;;;;;;;;;-144.99;100.00;52480.72;5030996;28;19945;-71
2023/10/07 11:29:13;;;;;;;;;;;;;;;-144.99;100.00;52423.63;5029537;28;19953;-72
2023/10/07 11:31:41;;;;;;;;;;;;;;;-144.99;100.00;52435.88;5029757;28;19995;-71
2023/10/07 11:34:08;;;;;;;;;;;;;;;-144.99;100.00;52484.78;5016809;28;19951;-71
2023/10/07 11:36:45;;;;;;;;;;;;;;;-144.99;100.00;52460.31;5028902;28;19937;-72
2023/10/07 11:39:14;;;;;;;;;;;;;;;-144.99;100.00;52460.31;5028701;28;19998;-72
2023/10/07 11:41:41;;;;;;;;;;;;;;;-144.99;100.00;52437.91;5032018;28;20028;-72
2023/10/07 11:44:09;;;;;;;;;;;;;;;-144.99;100.00;52448.09;5024023;28;19994;-71
2023/10/07 11:46:36;;;;;;;;;;;;;;;-144.99;100.00;52435.88;5034180;28;19937;-72
2023/10/07 11:49:03;;;;;;;;;;;;;;;-144.99;100.00;52452.16;5032178;28;19941;-72
2023/10/07 11:51:32;;;;;;;;;;;;;;;-144.99;100.00;52429.75;5031932;28;20030;-71
2023/10/07 11:53:58;;;;;;;;;;;;;;;-144.99;100.00;52464.41;5036875;28;20031;-71
2023/10/07 11:56:27;;;;;;;;;;;;;;;-144.99;100.00;52448.09;5033760;28;20354;-72
2023/10/07 11:58:54;;;;;;;;;;;;;;;-144.99;100.00;52450.13;5034446;28;20000;-71
2023/10/07 12:01:23;;;;;;;;;;;;;;;-144.99;100.00;52435.88;5025711;28;19971;-72
2023/10/07 12:03:50;;;;;;;;;;;;;;;-144.99;100.00;52435.88;5031819;28;19990;-73
2023/10/07 12:06:17;;;;;;;;;;;;;;;-144.99;100.00;52456.25;5026307;28;19937;-73
2023/10/07 12:08:44;;;;;;;;;;;;;;;-144.99;100.00;52497.00;5041734;28;19936;-72
2023/10/07 12:11:11;;;;;;;;;;;;;;;-144.99;100.00;52441.97;5035231;28;19984;-72
2023/10/07 12:13:41;;;;;;;;;;;;;;;-144.99;100.00;52460.31;5035699;28;20034;-72
2023/10/07 12:16:09;;;;;;;;;;;;;;;-144.99;100.00;52460.31;5038403;28;19944;-72
2023/10/07 12:18:35;;;;;;;;;;;;;;;-144.99;100.00;52488.84;5027090;28;19981;-71
2023/10/07 12:21:02;;;;;;;;;;;;;;;-144.99;100.00;52419.56;5024823;28;19968;-72
2023/10/07 12:23:28;;;;;;;;;;;;;;;-144.99;100.00;52474.59;5034129;28;19939;-72
2023/10/07 12:25:55;;;;;;;;;;;;;;;-144.99;100.00;52448.09;5009697;28;19972;-73
2023/10/07 12:28:23;;;;;;;;;;;;;;;-144.99;100.00;52452.16;5038946;28;19941;-73
2023/10/07 12:30:52;;;;;;;;;;;;;;;-144.99;100.00;52423.63;5035355;28;19955;-73
2023/10/07 12:33:18;;;;;;;;;;;;;;;-144.99;100.00;52460.31;5028332;28;19942;-72
2023/10/07 12:35:45;;;;;;;;;;;;;;;-144.99;100.00;52446.06;5036763;28;19977;-72
2023/10/07 12:38:12;;;;;;;;;;;;;;;-144.99;100.00;52472.56;5033106;28;19946;-72
2023/10/07 12:40:40;;;;;;;;;;;;;;;-144.99;100.00;52450.13;5030465;28;19958;-72